EUS17MN EINN-EGPH
Flight info
| Callsign | EUS17MN |
|---|---|
| Flight time | 0h 49m |
| Altitude | 37000 |
| Route | AGINI3A AGINI DCT ROTEV DCT GOTNA DCT BLACA/N0359F250 P600 TUNSO |
| Aircraft | A320/M-SDE3FGHIRWY/LB1 |
Departure
| Time | 2026-05-05 18:09 |
|---|---|
| Airport | Shannon Airport (EINN) |
Arrival
| Time | 2026-05-05 18:58 |
|---|---|
| Airport | Edinburgh Airport (EGPH) |
| Time | Latitude | Longitude | Altitude | Speed | Heading |
|---|---|---|---|---|---|
| 2026-05-05 17:47 | 52.69208 | -8.91663 | 23 ft | 0 kts | 220° |
| 2026-05-05 18:03 | 52.69211 | -8.91658 | 23 ft | 3 kts | 221° |
| 2026-05-05 18:03 | 52.69230 | -8.91628 | 24 ft | 4 kts | 231° |
| 2026-05-05 18:03 | 52.69244 | -8.91592 | 25 ft | 4 kts | 258° |
| 2026-05-05 18:04 | 52.69242 | -8.91560 | 23 ft | 1 kts | 310° |
| 2026-05-05 18:06 | 52.69321 | -8.91712 | 23 ft | 13 kts | 314° |
| 2026-05-05 18:06 | 52.69402 | -8.91765 | 22 ft | 13 kts | 335° |
| 2026-05-05 18:07 | 52.69447 | -8.91882 | 25 ft | 12 kts | 288° |
| 2026-05-05 18:07 | 52.69471 | -8.92046 | 24 ft | 21 kts | 284° |
| 2026-05-05 18:07 | 52.69530 | -8.92311 | 23 ft | 26 kts | 300° |
| 2026-05-05 18:07 | 52.69656 | -8.92532 | 23 ft | 27 kts | 315° |
| 2026-05-05 18:08 | 52.69783 | -8.92737 | 23 ft | 23 kts | 315° |
| 2026-05-05 18:08 | 52.69898 | -8.92925 | 32 ft | 20 kts | 315° |
| 2026-05-05 18:08 | 52.69971 | -8.92973 | 37 ft | 11 kts | 38° |
| 2026-05-05 18:08 | 52.70024 | -8.92862 | 37 ft | 37 kts | 52° |
| 2026-05-05 18:09 | 52.70358 | -8.92153 | 34 ft | 114 kts | 52° |
| 2026-05-05 18:09 | 52.70964 | -8.90873 | 169 ft | 157 kts | 52° |
| 2026-05-05 18:09 | 52.71640 | -8.89455 | 954 ft | 158 kts | 44° |
| 2026-05-05 18:09 | 52.72550 | -8.88559 | 1743 ft | 159 kts | 15° |
| 2026-05-05 18:10 | 52.73612 | -8.87895 | 2432 ft | 169 kts | 25° |
| 2026-05-05 18:10 | 52.74708 | -8.86996 | 2980 ft | 183 kts | 24° |
| 2026-05-05 18:10 | 52.75884 | -8.86098 | 3520 ft | 199 kts | 22° |
| 2026-05-05 18:10 | 52.77242 | -8.85209 | 4053 ft | 222 kts | 19° |
| 2026-05-05 18:11 | 52.78745 | -8.84289 | 4723 ft | 242 kts | 20° |
| 2026-05-05 18:11 | 52.80375 | -8.83203 | 5436 ft | 259 kts | 21° |
| 2026-05-05 18:11 | 52.82063 | -8.82028 | 6393 ft | 266 kts | 22° |
| 2026-05-05 18:11 | 52.83772 | -8.80814 | 7303 ft | 273 kts | 22° |
| 2026-05-05 18:12 | 52.85525 | -8.79560 | 8303 ft | 276 kts | 21° |
| 2026-05-05 18:12 | 52.87298 | -8.78290 | 9320 ft | 279 kts | 21° |
| 2026-05-05 18:12 | 52.89090 | -8.77009 | 10267 ft | 284 kts | 21° |
| 2026-05-05 18:12 | 52.90982 | -8.75660 | 10682 ft | 307 kts | 21° |
| 2026-05-05 18:13 | 52.92981 | -8.74236 | 11303 ft | 319 kts | 22° |
| 2026-05-05 18:13 | 52.95038 | -8.72764 | 12105 ft | 326 kts | 21° |
| 2026-05-05 18:13 | 52.97138 | -8.71257 | 12960 ft | 331 kts | 21° |
| 2026-05-05 18:13 | 52.99166 | -8.69797 | 13768 ft | 335 kts | 21° |
| 2026-05-05 18:14 | 53.01319 | -8.68243 | 14533 ft | 340 kts | 21° |
| 2026-05-05 18:14 | 53.03450 | -8.66488 | 15261 ft | 346 kts | 32° |
| 2026-05-05 18:14 | 53.05265 | -8.63837 | 15988 ft | 353 kts | 42° |
| 2026-05-05 18:14 | 53.06882 | -8.61185 | 16675 ft | 357 kts | 43° |
| 2026-05-05 18:15 | 53.08707 | -8.58162 | 17431 ft | 361 kts | 43° |
| 2026-05-05 18:15 | 53.10493 | -8.55184 | 18138 ft | 365 kts | 43° |
| 2026-05-05 18:15 | 53.12211 | -8.52312 | 18763 ft | 369 kts | 43° |
| 2026-05-05 18:15 | 53.14029 | -8.49268 | 19393 ft | 373 kts | 43° |
| 2026-05-05 18:16 | 53.15871 | -8.46194 | 20030 ft | 377 kts | 43° |
| 2026-05-05 18:16 | 53.17735 | -8.43086 | 20658 ft | 381 kts | 43° |
| 2026-05-05 18:16 | 53.19618 | -8.39946 | 21274 ft | 385 kts | 43° |
| 2026-05-05 18:16 | 53.21520 | -8.36771 | 21897 ft | 389 kts | 43° |
| 2026-05-05 18:17 | 53.23435 | -8.33563 | 22504 ft | 393 kts | 43° |
| 2026-05-05 18:17 | 53.25375 | -8.30307 | 23105 ft | 397 kts | 43° |
| 2026-05-05 18:17 | 53.27330 | -8.27024 | 23714 ft | 401 kts | 43° |
| 2026-05-05 18:17 | 53.29310 | -8.23695 | 24209 ft | 405 kts | 43° |
| 2026-05-05 18:18 | 53.31294 | -8.20348 | 24720 ft | 408 kts | 43° |
| 2026-05-05 18:18 | 53.33299 | -8.16960 | 25214 ft | 411 kts | 43° |
| 2026-05-05 18:18 | 53.35321 | -8.13542 | 25706 ft | 414 kts | 43° |
| 2026-05-05 18:18 | 53.37355 | -8.10101 | 26192 ft | 417 kts | 43° |
| 2026-05-05 18:19 | 53.39397 | -8.06642 | 26657 ft | 420 kts | 43° |
| 2026-05-05 18:19 | 53.41458 | -8.03149 | 27119 ft | 422 kts | 43° |
| 2026-05-05 18:19 | 53.43531 | -7.99630 | 27571 ft | 425 kts | 43° |
| 2026-05-05 18:19 | 53.45614 | -7.96091 | 28013 ft | 428 kts | 43° |
| 2026-05-05 18:20 | 53.47704 | -7.92528 | 28456 ft | 431 kts | 43° |
| 2026-05-05 18:20 | 53.49811 | -7.88920 | 28888 ft | 433 kts | 43° |
| 2026-05-05 18:20 | 53.51899 | -7.85336 | 29296 ft | 436 kts | 43° |
| 2026-05-05 18:20 | 53.54030 | -7.81686 | 29699 ft | 439 kts | 43° |
| 2026-05-05 18:21 | 53.56167 | -7.78027 | 30107 ft | 441 kts | 43° |
| 2026-05-05 18:21 | 53.58334 | -7.74314 | 30420 ft | 445 kts | 43° |
| 2026-05-05 18:21 | 53.60509 | -7.70573 | 30721 ft | 448 kts | 43° |
| 2026-05-05 18:21 | 53.62697 | -7.66807 | 30992 ft | 451 kts | 43° |
| 2026-05-05 18:22 | 53.64919 | -7.62978 | 31063 ft | 451 kts | 43° |
| 2026-05-05 18:22 | 53.69272 | -7.55454 | 31066 ft | 451 kts | 43° |
| 2026-05-05 18:23 | 53.73646 | -7.47854 | 31070 ft | 451 kts | 43° |
| 2026-05-05 18:23 | 53.78015 | -7.40246 | 31075 ft | 451 kts | 44° |
| 2026-05-05 18:24 | 53.82382 | -7.32614 | 31074 ft | 452 kts | 44° |
| 2026-05-05 18:24 | 53.86724 | -7.25004 | 31072 ft | 452 kts | 44° |
| 2026-05-05 18:25 | 53.91099 | -7.17318 | 31459 ft | 456 kts | 44° |
| 2026-05-05 18:25 | 53.92590 | -7.14695 | 31680 ft | 457 kts | 44° |
| 2026-05-05 18:25 | 53.95513 | -7.09549 | 32203 ft | 457 kts | 44° |
| 2026-05-05 18:25 | 53.97721 | -7.05650 | 32632 ft | 456 kts | 44° |
| 2026-05-05 18:26 | 53.99914 | -7.01765 | 33070 ft | 456 kts | 44° |
| 2026-05-05 18:26 | 54.02103 | -6.97875 | 33502 ft | 455 kts | 44° |
| 2026-05-05 18:26 | 54.04286 | -6.93990 | 33938 ft | 454 kts | 44° |
| 2026-05-05 18:26 | 54.06468 | -6.90107 | 34327 ft | 454 kts | 44° |
| 2026-05-05 18:27 | 54.08651 | -6.86219 | 34656 ft | 454 kts | 44° |
| 2026-05-05 18:27 | 54.10825 | -6.82344 | 34995 ft | 453 kts | 44° |
| 2026-05-05 18:27 | 54.13010 | -6.78446 | 35324 ft | 453 kts | 44° |
| 2026-05-05 18:27 | 54.15183 | -6.74557 | 35632 ft | 453 kts | 45° |
| 2026-05-05 18:28 | 54.19526 | -6.66762 | 36237 ft | 453 kts | 45° |
| 2026-05-05 18:28 | 54.21688 | -6.62869 | 36529 ft | 453 kts | 45° |
| 2026-05-05 18:28 | 54.23716 | -6.59211 | 36798 ft | 453 kts | 45° |
| 2026-05-05 18:29 | 54.25877 | -6.55304 | 37024 ft | 454 kts | 45° |
| 2026-05-05 18:29 | 54.28041 | -6.51384 | 37077 ft | 451 kts | 45° |
| 2026-05-05 18:29 | 54.32294 | -6.43682 | 37076 ft | 448 kts | 45° |
| 2026-05-05 18:30 | 54.36577 | -6.35900 | 36862 ft | 451 kts | 45° |
| 2026-05-05 18:30 | 54.38729 | -6.31982 | 36229 ft | 451 kts | 45° |
| 2026-05-05 18:30 | 54.40867 | -6.28081 | 35716 ft | 447 kts | 45° |
| 2026-05-05 18:31 | 54.42995 | -6.24188 | 35168 ft | 444 kts | 45° |
| 2026-05-05 18:31 | 54.45102 | -6.20332 | 34612 ft | 442 kts | 45° |
| 2026-05-05 18:31 | 54.47199 | -6.16486 | 34056 ft | 440 kts | 45° |
| 2026-05-05 18:31 | 54.49283 | -6.12655 | 33466 ft | 437 kts | 45° |
| 2026-05-05 18:32 | 54.51340 | -6.08858 | 32932 ft | 433 kts | 45° |
| 2026-05-05 18:32 | 54.53387 | -6.05076 | 32396 ft | 429 kts | 45° |
| 2026-05-05 18:32 | 54.55417 | -6.01327 | 31861 ft | 426 kts | 45° |
| 2026-05-05 18:32 | 54.57431 | -5.97608 | 31348 ft | 423 kts | 45° |
| 2026-05-05 18:33 | 54.59433 | -5.93907 | 30836 ft | 420 kts | 45° |
| 2026-05-05 18:33 | 54.61422 | -5.90224 | 30353 ft | 417 kts | 45° |
| 2026-05-05 18:33 | 54.63391 | -5.86566 | 29791 ft | 415 kts | 45° |
| 2026-05-05 18:33 | 54.65342 | -5.82927 | 29327 ft | 410 kts | 45° |
| 2026-05-05 18:34 | 54.67268 | -5.79336 | 28856 ft | 406 kts | 45° |
| 2026-05-05 18:34 | 54.69175 | -5.75774 | 28407 ft | 401 kts | 45° |
| 2026-05-05 18:34 | 54.71058 | -5.72256 | 27951 ft | 397 kts | 45° |
| 2026-05-05 18:34 | 54.72930 | -5.68756 | 27490 ft | 394 kts | 45° |
| 2026-05-05 18:35 | 54.74780 | -5.65293 | 27031 ft | 391 kts | 45° |
| 2026-05-05 18:35 | 54.76611 | -5.61853 | 26559 ft | 388 kts | 45° |
| 2026-05-05 18:35 | 54.78434 | -5.58424 | 26098 ft | 385 kts | 45° |
| 2026-05-05 18:35 | 54.80242 | -5.55022 | 25618 ft | 383 kts | 45° |
| 2026-05-05 18:36 | 54.82042 | -5.51637 | 25141 ft | 381 kts | 45° |
| 2026-05-05 18:36 | 54.83831 | -5.48264 | 24636 ft | 379 kts | 45° |
| 2026-05-05 18:36 | 54.85611 | -5.44903 | 24146 ft | 378 kts | 45° |
| 2026-05-05 18:36 | 54.87388 | -5.41532 | 23628 ft | 377 kts | 45° |
| 2026-05-05 18:37 | 54.89153 | -5.38183 | 23083 ft | 376 kts | 45° |
| 2026-05-05 18:37 | 54.90915 | -5.34839 | 22583 ft | 373 kts | 45° |
| 2026-05-05 18:37 | 54.92653 | -5.31534 | 22093 ft | 370 kts | 45° |
| 2026-05-05 18:37 | 54.94380 | -5.28238 | 21625 ft | 367 kts | 45° |
| 2026-05-05 18:38 | 54.96095 | -5.24961 | 21152 ft | 365 kts | 45° |
| 2026-05-05 18:38 | 54.97801 | -5.21704 | 20669 ft | 363 kts | 45° |
| 2026-05-05 18:38 | 54.99499 | -5.18471 | 20214 ft | 361 kts | 45° |
| 2026-05-05 18:38 | 55.01186 | -5.15254 | 19753 ft | 359 kts | 45° |
| 2026-05-05 18:39 | 55.02863 | -5.12045 | 19297 ft | 358 kts | 45° |
| 2026-05-05 18:39 | 55.04533 | -5.08841 | 18834 ft | 356 kts | 45° |
| 2026-05-05 18:39 | 55.06195 | -5.05639 | 18398 ft | 355 kts | 45° |
| 2026-05-05 18:39 | 55.07848 | -5.02448 | 17905 ft | 354 kts | 45° |
| 2026-05-05 18:40 | 55.09497 | -4.99263 | 17455 ft | 351 kts | 45° |
| 2026-05-05 18:40 | 55.11019 | -4.95944 | 17016 ft | 352 kts | 55° |
| 2026-05-05 18:40 | 55.12111 | -4.92142 | 16829 ft | 345 kts | 64° |
| 2026-05-05 18:40 | 55.13045 | -4.88363 | 16645 ft | 339 kts | 64° |
| 2026-05-05 18:41 | 55.13984 | -4.84606 | 16462 ft | 336 kts | 64° |
| 2026-05-05 18:41 | 55.14921 | -4.80860 | 16273 ft | 335 kts | 64° |
| 2026-05-05 18:41 | 55.15851 | -4.77127 | 16088 ft | 334 kts | 64° |
| 2026-05-05 18:41 | 55.16774 | -4.73413 | 15900 ft | 333 kts | 64° |
| 2026-05-05 18:42 | 55.17698 | -4.69686 | 15725 ft | 332 kts | 64° |
| 2026-05-05 18:42 | 55.18609 | -4.66003 | 15535 ft | 331 kts | 64° |
| 2026-05-05 18:42 | 55.19522 | -4.62308 | 15327 ft | 330 kts | 64° |
| 2026-05-05 18:42 | 55.20393 | -4.58770 | 15172 ft | 329 kts | 64° |
| 2026-05-05 18:43 | 55.21295 | -4.55099 | 14978 ft | 328 kts | 64° |
| 2026-05-05 18:43 | 55.22194 | -4.51434 | 14801 ft | 327 kts | 64° |
| 2026-05-05 18:43 | 55.23140 | -4.47835 | 14618 ft | 323 kts | 56° |
| 2026-05-05 18:43 | 55.24567 | -4.44869 | 14450 ft | 315 kts | 35° |
| 2026-05-05 18:44 | 55.26349 | -4.42663 | 14288 ft | 313 kts | 30° |
| 2026-05-05 18:44 | 55.28153 | -4.40532 | 14120 ft | 312 kts | 30° |
| 2026-05-05 18:44 | 55.29949 | -4.38422 | 13905 ft | 311 kts | 30° |
| 2026-05-05 18:44 | 55.31747 | -4.36307 | 13579 ft | 310 kts | 30° |
| 2026-05-05 18:45 | 55.33531 | -4.34207 | 13129 ft | 310 kts | 30° |
| 2026-05-05 18:45 | 55.35319 | -4.32100 | 12745 ft | 308 kts | 30° |
| 2026-05-05 18:45 | 55.37011 | -4.30103 | 12396 ft | 305 kts | 30° |
| 2026-05-05 18:45 | 55.38768 | -4.28024 | 12029 ft | 303 kts | 30° |
| 2026-05-05 18:46 | 55.40498 | -4.25975 | 11677 ft | 301 kts | 30° |
| 2026-05-05 18:46 | 55.42159 | -4.24009 | 11326 ft | 298 kts | 30° |
| 2026-05-05 18:46 | 55.43874 | -4.21977 | 11061 ft | 296 kts | 30° |
| 2026-05-05 18:46 | 55.45576 | -4.19951 | 10851 ft | 295 kts | 30° |
| 2026-05-05 18:47 | 55.47273 | -4.17925 | 10592 ft | 294 kts | 31° |
| 2026-05-05 18:47 | 55.48966 | -4.15906 | 10343 ft | 292 kts | 31° |
| 2026-05-05 18:47 | 55.50638 | -4.13914 | 10102 ft | 291 kts | 31° |
| 2026-05-05 18:47 | 55.52307 | -4.11921 | 9846 ft | 289 kts | 31° |
| 2026-05-05 18:48 | 55.53949 | -4.09957 | 9576 ft | 287 kts | 31° |
| 2026-05-05 18:48 | 55.55528 | -4.08065 | 9315 ft | 285 kts | 30° |
| 2026-05-05 18:48 | 55.57144 | -4.06126 | 9052 ft | 284 kts | 31° |
| 2026-05-05 18:48 | 55.58794 | -4.04144 | 8778 ft | 282 kts | 31° |
| 2026-05-05 18:49 | 55.60395 | -4.02218 | 8510 ft | 274 kts | 31° |
| 2026-05-05 18:49 | 55.61953 | -4.00339 | 8251 ft | 270 kts | 31° |
| 2026-05-05 18:49 | 55.63468 | -3.98514 | 7964 ft | 267 kts | 31° |
| 2026-05-05 18:49 | 55.64926 | -3.96761 | 7690 ft | 265 kts | 30° |
| 2026-05-05 18:50 | 55.66446 | -3.94934 | 7406 ft | 264 kts | 31° |
| 2026-05-05 18:50 | 55.67961 | -3.93116 | 7126 ft | 262 kts | 32° |
| 2026-05-05 18:50 | 55.69462 | -3.91306 | 6768 ft | 260 kts | 31° |
| 2026-05-05 18:50 | 55.70962 | -3.89495 | 6290 ft | 261 kts | 31° |
| 2026-05-05 18:51 | 55.72454 | -3.87689 | 5785 ft | 256 kts | 32° |
| 2026-05-05 18:51 | 55.73410 | -3.86528 | 5456 ft | 249 kts | 33° |
| 2026-05-05 18:51 | 55.74800 | -3.84839 | 4965 ft | 239 kts | 34° |
| 2026-05-05 18:51 | 55.76087 | -3.83274 | 4473 ft | 231 kts | 36° |
| 2026-05-05 18:52 | 55.77381 | -3.81704 | 4177 ft | 218 kts | 36° |
| 2026-05-05 18:52 | 55.78610 | -3.80213 | 4010 ft | 214 kts | 36° |
| 2026-05-05 18:52 | 55.79890 | -3.78656 | 4011 ft | 234 kts | 36° |
| 2026-05-05 18:52 | 55.81179 | -3.77049 | 4006 ft | 235 kts | 41° |
| 2026-05-05 18:53 | 55.82183 | -3.74812 | 4008 ft | 233 kts | 59° |
| 2026-05-05 18:53 | 55.83017 | -3.72336 | 4007 ft | 234 kts | 60° |
| 2026-05-05 18:53 | 55.83862 | -3.69851 | 4008 ft | 234 kts | 59° |
| 2026-05-05 18:53 | 55.84705 | -3.67395 | 3900 ft | 229 kts | 59° |
| 2026-05-05 18:54 | 55.85514 | -3.65044 | 3636 ft | 216 kts | 59° |
| 2026-05-05 18:54 | 55.86283 | -3.62803 | 3366 ft | 210 kts | 59° |
| 2026-05-05 18:54 | 55.87024 | -3.60641 | 3092 ft | 199 kts | 60° |
| 2026-05-05 18:54 | 55.87679 | -3.58731 | 2825 ft | 181 kts | 60° |
| 2026-05-05 18:55 | 55.88307 | -3.56896 | 2585 ft | 167 kts | 61° |
| 2026-05-05 18:55 | 55.88895 | -3.55177 | 2347 ft | 160 kts | 62° |
| 2026-05-05 18:55 | 55.89453 | -3.53544 | 2146 ft | 150 kts | 62° |
| 2026-05-05 18:55 | 55.89985 | -3.51984 | 1942 ft | 145 kts | 62° |
| 2026-05-05 18:56 | 55.90499 | -3.50478 | 1735 ft | 142 kts | 63° |
| 2026-05-05 18:56 | 55.91009 | -3.48979 | 1533 ft | 140 kts | 62° |
| 2026-05-05 18:56 | 55.91525 | -3.47504 | 1318 ft | 139 kts | 61° |
| 2026-05-05 18:56 | 55.92048 | -3.46068 | 1093 ft | 138 kts | 60° |
| 2026-05-05 18:57 | 55.92540 | -3.44631 | 870 ft | 131 kts | 62° |
| 2026-05-05 18:57 | 55.92990 | -3.43267 | 693 ft | 124 kts | 62° |
| 2026-05-05 18:57 | 55.93417 | -3.41957 | 547 ft | 122 kts | 63° |
| 2026-05-05 18:57 | 55.93843 | -3.40685 | 386 ft | 120 kts | 63° |
| 2026-05-05 18:58 | 55.94279 | -3.39389 | 221 ft | 122 kts | 63° |
| 2026-05-05 18:58 | 55.94705 | -3.38124 | 121 ft | 120 kts | 63° |
| 2026-05-05 18:58 | 55.95077 | -3.37015 | 114 ft | 82 kts | 58° |
| 2026-05-05 18:58 | 55.95255 | -3.36493 | 111 ft | 17 kts | 58° |
| 2026-05-05 18:59 | 55.95224 | -3.36384 | 114 ft | 8 kts | 148° |
| 2026-05-05 18:59 | 55.95184 | -3.36342 | 114 ft | 6 kts | 149° |
| 2026-05-05 18:59 | 55.95147 | -3.36309 | 115 ft | 7 kts | 168° |
| 2026-05-05 18:59 | 55.95091 | -3.36411 | 115 ft | 14 kts | 238° |
| 2026-05-05 19:00 | 55.95041 | -3.36556 | 112 ft | 13 kts | 239° |
| 2026-05-05 19:00 | 55.94994 | -3.36695 | 113 ft | 13 kts | 239° |
| 2026-05-05 19:00 | 55.94946 | -3.36820 | 115 ft | 12 kts | 213° |
| 2026-05-05 19:00 | 55.94866 | -3.36781 | 115 ft | 14 kts | 171° |
| 2026-05-05 19:01 | 55.94784 | -3.36773 | 116 ft | 11 kts | 166° |
| 2026-05-05 19:01 | 55.94715 | -3.36737 | 115 ft | 12 kts | 179° |
| 2026-05-05 19:01 | 55.94672 | -3.36736 | 116 ft | 3 kts | 177° |
| 2026-05-05 19:01 | 55.94657 | -3.36698 | 115 ft | 6 kts | 102° |
| 2026-05-05 19:02 | 55.94657 | -3.36620 | 116 ft | 4 kts | 89° |
| 2026-05-05 19:02 | 55.94657 | -3.36618 | 116 ft | 0 kts | 89° |